Latest Weather Observations for Ulladulla

IDN60901

Issued at 9:05 pm EDT Saturday 22 November 2014 (issued every 10 minutes, with the page automatically refreshed every 10 minutes)

About weather observations | Map of Canberra area stations | Latest observations for Canberra area | Other Formats
Station Details ID: 069138 Name: ULLADULLA AWS Lat: -35.36 Lon: 150.48 Height: 35.7 m
Data from the previous 72 hours. | See also: Recent months at Ulladulla
Date/Time
EDT
Tmp

°C
App
Tmp
°C
Dew
Point
°C
Rel
Hum
%
Delta-T

°C
Wind Press
QNH
hPa
Press
MSL
hPa
Rain
since
9 am
mm
Dir
 
Spd
km/h
Gust
km/h
Spd
kts
Gust
kts
22/09:00pm 19.5 21.6 18.2 92 0.8 NNE 4 9 2 5 1012.5 1012.4 0.0
22/08:30pm 19.5 21.0 17.5 88 1.2 NNE 6 13 3 7 1012.5 1012.4 0.0
22/08:00pm 19.6 21.0 17.4 87 1.3 NNE 6 9 3 5 1012.3 1012.2 0.0
22/07:30pm 19.8 20.7 17.6 87 1.4 NE 9 15 5 8 1011.7 1011.6 0.0
22/07:00pm 20.0 18.8 17.4 85 1.6 NNE 20 26 11 14 1010.9 1010.8 0.0
22/06:30pm 19.9 18.2 17.1 84 1.7 NE 22 30 12 16 1010.7 1010.6 0.0
22/06:00pm 19.9 18.5 16.9 83 1.8 NNE 20 28 11 15 1010.4 1010.3 0.0
22/05:30pm 20.1 18.8 16.9 82 1.9 NNE 19 24 10 13 1010.3 1010.2 0.0
22/05:00pm 20.4 19.9 16.8 80 2.2 NNE 15 22 8 12 1010.6 1010.5 0.0
22/04:30pm 21.3 20.9 17.1 77 2.6 NE 15 22 8 12 1010.5 1010.4 0.0
22/04:00pm 20.8 20.6 16.8 78 2.4 NE 13 20 7 11 1011.0 1010.9 0.0
22/03:30pm 20.7 19.1 16.1 75 2.8 NNE 19 28 10 15 1010.7 1010.6 0.0
22/03:00pm 20.6 19.0 16.0 75 2.8 NE 19 28 10 15 1011.2 1011.1 0.0
22/02:30pm 20.7 18.8 15.7 73 3.0 NE 20 30 11 16 1011.7 1011.6 0.0
22/02:00pm 21.2 19.6 16.0 72 3.1 NE 19 30 10 16 1012.2 1012.1 0.0
22/01:30pm 21.3 20.2 15.4 69 3.5 NE 15 26 8 14 1012.4 1012.3 0.0
22/01:00pm 21.4 19.9 15.3 68 3.6 NE 17 24 9 13 1012.8 1012.7 0.0
22/12:30pm 21.0 19.4 15.1 69 3.5 NE 17 24 9 13 1013.4 1013.3 0.0
22/12:00pm 21.3 20.0 14.9 67 3.8 ENE 15 24 8 13 1013.9 1013.8 0.0
22/11:30am 21.0 20.5 14.9 68 3.6 ENE 11 19 6 10 1014.3 1014.2 0.0
22/11:00am 21.0 20.6 15.3 70 3.4 ENE 11 15 6 8 1014.9 1014.8 0.0
22/10:30am 20.8 20.9 15.4 71 3.2 ENE 9 13 5 7 1015.2 1015.1 0.0
22/10:00am 20.5 20.6 15.5 73 3.0 ENE 9 13 5 7 1015.3 1015.2 0.0
22/09:30am 20.0 19.9 15.0 73 2.9 NE 9 13 5 7 1015.5 1015.4 0.0
22/09:00am 19.4 19.7 14.9 75 2.6 NNE 7 9 4 5 1015.7 1015.6 0.0
22/08:30am 19.7 20.1 15.4 76 2.5 NNE 7 9 4 5 1015.6 1015.5 0.0
22/08:00am 19.1 19.3 14.8 76 2.5 NNE 7 11 4 6 1015.6 1015.5 0.0
22/07:30am 18.8 19.0 14.3 75 2.6 NNE 6 9 3 5 1015.4 1015.3 0.0
22/07:00am 18.4 19.5 14.7 79 2.1 ENE 2 4 1 2 1015.3 1015.2 0.0
22/06:30am 17.6 18.9 14.1 80 2.0 CALM 0 4 0 2 1015.5 1015.4 0.0
22/06:00am 17.1 17.6 14.0 82 1.8 E 4 6 2 3 1015.3 1015.2 0.0
22/05:30am 17.1 17.6 14.0 82 1.8 E 4 4 2 2 1015.0 1014.9 0.0
22/05:00am 17.1 17.9 13.8 81 1.9 E 2 4 1 2 1014.9 1014.8 0.0
22/04:30am 17.4 17.9 13.9 80 2.0 ESE 4 7 2 4 1014.6 1014.5 0.0
22/04:00am 18.1 18.8 14.4 79 2.1 SE 4 7 2 4 1014.3 1014.2 0.0
22/03:30am 18.2 18.5 14.5 79 2.1 SSE 6 11 3 6 1014.2 1014.1 0.0
22/03:00am 18.2 18.5 14.5 79 2.1 SE 6 9 3 5 1014.1 1014.0 0.0
22/02:30am 18.2 18.5 14.5 79 2.1 SE 6 7 3 4 1014.4 1014.3 0.0
22/02:00am 18.3 18.7 14.8 80 2.0 SSE 6 9 3 5 1014.7 1014.6 0.0
22/01:30am 18.4 18.3 14.9 80 2.0 SE 9 13 5 7 1014.9 1014.8 0.0
22/01:00am 18.3 18.5 14.8 80 2.0 SSE 7 11 4 6 1015.1 1015.0 0.0
22/12:30am 18.5 18.3 14.8 79 2.2 SSE 9 15 5 8 1015.3 1015.2 0.0
22/12:00am 18.6 18.1 14.9 79 2.2 SSE 11 19 6 10 1015.5 1015.4 0.0
 
Date/Time
EDT
Tmp

°C
App
Tmp
°C
Dew
Point
°C
Rel
Hum
%
Delta-T

°C
Wind Press
QNH
hPa
Press
MSL
hPa
Rain
since
9 am
mm
Dir
 
Spd
km/h
Gust
km/h
Spd
kts
Gust
kts
21/11:30pm 18.8 18.4 15.3 80 2.1 SSE 11 17 6 9 1015.6 1015.5 0.0
21/11:00pm 18.9 18.7 15.8 82 1.8 SSE 11 17 6 9 1015.4 1015.3 0.0
21/10:30pm 18.9 18.4 15.8 82 1.8 SSE 13 20 7 11 1015.3 1015.2 0.0
21/10:00pm 18.9 18.4 15.8 82 1.8 SSE 13 20 7 11 1015.3 1015.2 0.0
21/09:30pm 19.1 18.6 16.0 82 1.8 SSE 13 20 7 11 1014.9 1014.8 0.0
21/09:00pm 18.8 17.9 15.9 83 1.7 SSE 15 20 8 11 1014.4 1014.3 0.0
21/08:30pm 19.1 18.3 16.1 83 1.8 S 15 20 8 11 1013.9 1013.8 0.0
21/08:00pm 19.2 17.9 15.9 81 2.0 S 17 22 9 12 1013.4 1013.3 0.0
21/07:30pm 19.4 18.2 16.1 81 2.0 S 17 24 9 13 1012.9 1012.8 0.0
21/07:00pm 19.6 18.0 16.1 80 2.1 S 19 26 10 14 1012.0 1011.9 0.0
21/06:30pm 19.8 18.2 16.1 79 2.2 S 19 26 10 14 1011.4 1011.3 0.0
21/06:00pm 20.0 18.3 16.2 79 2.3 S 20 30 11 16 1010.4 1010.3 0.0
21/05:30pm 20.2 17.1 16.6 80 2.2 S 28 35 15 19 1009.8 1009.7 0.0
21/05:00pm 21.3 18.0 17.1 77 2.6 S 30 37 16 20 1009.2 1009.1 0.0
21/04:30pm 21.8 18.7 17.4 76 2.7 S 30 35 16 19 1008.7 1008.6 0.0
21/04:00pm 23.2 21.0 17.9 72 3.3 S 26 32 14 17 1008.1 1008.0 0.0
21/03:30pm 23.4 22.3 17.8 71 3.5 S 20 28 11 15 1007.7 1007.6 0.0
21/03:00pm 23.8 23.0 18.0 70 3.6 SSE 19 32 10 17 1007.1 1007.0 0.0
21/02:30pm 24.2 23.2 17.9 68 3.9 SSE 20 32 11 17 1006.2 1006.1 0.0
21/02:00pm 24.9 25.0 17.4 63 4.7 NE 13 22 7 12 1005.6 1005.5 0.0
21/01:30pm 25.1 25.1 18.1 65 4.4 NE 15 20 8 11 1005.4 1005.3 0.0
21/01:00pm 22.2 21.8 17.1 73 3.1 NNE 15 20 8 11 1005.8 1005.7 0.0
21/12:30pm 24.7 25.4 16.2 59 5.2 ENE 7 13 4 7 1005.8 1005.7 0.0
21/12:00pm 25.4 26.1 15.7 55 5.9 ENE 6 9 3 5 1006.0 1005.9 0.0
21/11:30am 24.3 24.4 15.5 58 5.3 NNE 9 13 5 7 1006.3 1006.2 0.0
21/11:00am 24.3 25.2 16.6 62 4.7 NNE 7 9 4 5 1006.2 1006.1 0.0
21/10:30am 23.7 24.4 16.2 63 4.6 NNE 7 11 4 6 1006.2 1006.1 0.0
21/10:00am 22.8 23.3 16.6 68 3.8 NNE 9 13 5 7 1006.2 1006.1 0.0
21/09:30am 22.3 23.3 16.3 69 3.6 NNE 6 11 3 6 1006.3 1006.2 0.0
21/09:00am 21.6 21.7 14.5 64 4.2 NNE 7 9 4 5 1006.5 1006.4 0.0
21/08:30am 21.2 21.4 14.6 66 3.9 N 7 9 4 5 1006.2 1006.1 0.0
21/08:00am 22.1 23.1 14.2 61 4.6 SSW 2 6 1 3 1006.5 1006.4 0.0
21/07:30am 21.4 22.3 15.0 67 3.8 SSW 4 7 2 4 1006.6 1006.5 0.0
21/07:00am 20.5 21.1 15.3 72 3.1 SSW 6 7 3 4 1006.5 1006.4 0.0
21/06:30am 19.0 19.3 14.5 75 2.6 SSW 6 9 3 5 1006.8 1006.7 0.0
21/06:00am 19.5 19.7 14.1 71 3.1 SSW 6 9 3 5 1006.6 1006.5 0.0
21/05:30am 20.1 19.4 14.2 69 3.4 SW 11 17 6 9 1006.4 1006.3 0.0
21/05:00am 20.5 18.6 14.2 67 3.7 SSW 17 24 9 13 1006.2 1006.1 0.0
21/04:30am 20.7 18.6 14.6 68 3.6 SSW 19 28 10 15 1006.1 1006.0 0.0
21/04:00am 20.5 18.3 14.8 70 3.4 SSW 20 30 11 16 1006.1 1006.0 0.0
21/03:30am 21.0 18.0 14.9 68 3.6 SSW 24 37 13 20 1006.5 1006.4 0.0
21/03:00am 20.6 17.5 15.6 73 3.0 SSW 26 37 14 20 1006.1 1006.0 0.0
21/02:30am 20.1 16.8 16.1 78 2.4 SSW 28 39 15 21 1006.0 1005.9 0.0
21/02:00am 20.1 17.9 17.9 87 1.4 SSW 26 43 14 23 1005.7 1005.6 0.0
21/01:55am 20.2 17.6 17.8 86 1.5 SSW 28 39 15 21 1005.6 1005.5 0.0
21/01:30am 21.1 22.7 17.9 82 2.0 N 6 9 3 5 1004.7 1004.6 0.0
21/01:00am 21.0 22.7 18.0 83 1.9 N 6 11 3 6 1004.9 1004.8 0.0
21/12:30am 21.4 22.9 18.0 81 2.1 N 7 13 4 7 1005.0 1004.9 0.0
21/12:00am 21.2 22.4 18.2 83 1.9 N 9 13 5 7 1005.4 1005.3 0.0
 
Date/Time
EDT
Tmp

°C
App
Tmp
°C
Dew
Point
°C
Rel
Hum
%
Delta-T

°C
Wind Press
QNH
hPa
Press
MSL
hPa
Rain
since
9 am
mm
Dir
 
Spd
km/h
Gust
km/h
Spd
kts
Gust
kts
20/11:30pm 21.3 22.9 18.3 83 1.9 N 7 11 4 6 1005.8 1005.7 0.0
20/11:00pm 21.2 22.8 18.2 83 1.9 N 7 15 4 8 1006.2 1006.1 0.0
20/10:30pm 21.5 22.6 18.1 81 2.1 N 9 13 5 7 1006.5 1006.4 0.0
20/10:00pm 21.5 22.3 18.1 81 2.1 N 11 17 6 9 1006.8 1006.7 0.0
20/09:30pm 21.4 23.0 18.2 82 2.0 N 7 13 4 7 1007.0 1006.9 0.0
20/09:00pm 22.0 23.3 18.4 80 2.3 N 9 15 5 8 1006.8 1006.7 0.0
20/08:30pm 21.6 23.4 18.2 81 2.1 N 6 11 3 6 1006.7 1006.6 0.0
20/08:00pm 21.8 23.4 18.2 80 2.3 N 7 13 4 7 1006.7 1006.6 0.0
20/07:30pm 22.2 23.5 18.4 79 2.4 N 9 15 5 8 1006.4 1006.3 0.0
20/07:00pm 21.7 22.1 18.1 80 2.2 N 13 17 7 9 1006.2 1006.1 0.0
20/06:30pm 22.2 24.0 18.4 79 2.4 N 6 11 3 6 1005.9 1005.8 0.0
20/06:00pm 22.8 22.9 18.3 76 2.8 NNE 15 28 8 15 1005.8 1005.7 0.0
20/05:30pm 23.3 24.6 19.2 78 2.6 NNE 11 17 6 9 1006.0 1005.9 0.0
20/05:00pm 23.1 23.2 18.4 75 3.0 NNE 15 28 8 15 1005.9 1005.8 0.0
20/04:30pm 23.1 21.8 18.2 74 3.1 NNE 22 35 12 19 1006.0 1005.9 0.0
20/04:00pm 23.2 24.9 18.5 75 3.0 NNE 7 19 4 10 1006.5 1006.4 0.0
20/03:30pm 23.3 23.9 18.6 75 3.0 NNE 13 19 7 10 1006.9 1006.8 0.0
20/03:00pm 23.4 23.8 18.9 76 2.9 NNE 15 22 8 12 1007.5 1007.4 0.0
20/02:30pm 22.5 24.0 18.9 80 2.3 NNE 9 17 5 9 1007.8 1007.7 0.0
20/02:00pm 22.6 24.5 19.0 80 2.3 N 7 11 4 6 1008.1 1008.0 0.0
20/01:30pm 22.2 22.9 18.0 77 2.6 N 11 17 6 9 1008.5 1008.4 0.0
20/01:00pm 23.6 25.5 18.9 75 3.0 N 7 17 4 9 1009.2 1009.1 0.0
20/12:30pm 23.7 24.8 18.8 74 3.1 NNE 11 24 6 13 1009.6 1009.5 0.0
20/12:00pm 23.5 24.4 18.4 73 3.2 NE 11 20 6 11 1010.0 1009.9 0.0
20/11:30am 23.9 24.6 17.9 69 3.8 NNE 11 19 6 10 1010.8 1010.7 0.0
20/11:00am 22.7 23.3 17.6 73 3.2 NNE 11 15 6 8 1011.0 1010.9 0.0
20/10:30am 21.7 22.9 17.3 76 2.7 NNE 7 11 4 6 1011.5 1011.4 0.0
20/10:00am 21.7 22.5 17.3 76 2.7 N 9 13 5 7 1012.1 1012.0 0.0
20/09:30am 21.3 21.6 16.0 72 3.2 N 9 13 5 7 1012.5 1012.4 0.0
20/09:00am 20.4 20.8 15.2 72 3.1 N 7 9 4 5 1012.9 1012.8 0.0
20/08:30am 18.9 19.3 14.8 77 2.4 N 6 7 3 4 1012.9 1012.8 0.0
20/08:00am 18.2 18.6 15.3 83 1.7 N 7 11 4 6 1013.0 1012.9 0.0
20/07:30am 18.1 19.0 16.1 88 1.2 N 6 7 3 4 1012.8 1012.7 0.0
20/07:00am 16.9 17.5 15.9 94 0.6 N 7 9 4 5 1012.8 1012.7 0.0
20/06:30am 15.9 16.3 15.3 96 0.3 N 7 9 4 5 1012.7 1012.6 0.0
20/06:00am 15.2 15.3 14.4 95 0.5 N 7 9 4 5 1012.8 1012.7 0.0
20/05:30am 15.5 15.8 14.9 96 0.3 N 7 9 4 5 1012.8 1012.7 0.0
20/05:00am 15.5 15.8 14.5 94 0.6 NNW 6 7 3 4 1012.9 1012.8 0.0
20/04:30am 16.1 15.9 14.6 91 0.9 N 9 11 5 6 1012.8 1012.7 0.0
20/04:00am 16.0 16.0 14.2 89 1.0 N 7 9 4 5 1013.0 1012.9 0.0
20/03:30am 16.2 16.3 14.4 89 1.0 N 7 11 4 6 1013.0 1012.9 0.0
20/03:00am 16.6 16.6 15.1 91 0.9 N 9 13 5 7 1013.4 1013.3 0.0
20/02:30am 16.4 16.7 14.6 89 1.0 N 6 9 3 5 1013.8 1013.7 0.0
20/02:00am 17.1 16.3 15.1 88 1.2 N 13 19 7 10 1014.1 1014.0 0.0
20/01:30am 17.5 16.3 15.1 86 1.4 N 15 24 8 13 1014.3 1014.2 0.0
20/01:00am 17.6 17.0 15.6 88 1.2 N 13 22 7 12 1014.6 1014.5 0.0
20/12:30am 17.7 17.4 15.5 87 1.3 N 11 20 6 11 1014.7 1014.6 0.0
20/12:00am 18.0 16.5 15.4 85 1.5 N 17 24 9 13 1015.1 1015.0 0.0
 
Date/Time
EDT
Tmp

°C
App
Tmp
°C
Dew
Point
°C
Rel
Hum
%
Delta-T

°C
Wind Press
QNH
hPa
Press
MSL
hPa
Rain
since
9 am
mm
Dir
 
Spd
km/h
Gust
km/h
Spd
kts
Gust
kts
19/11:30pm 17.9 16.9 15.5 86 1.4 N 15 20 8 11 1015.3 1015.2 0.0
19/11:00pm 17.9 17.2 15.3 85 1.5 N 13 20 7 11 1015.5 1015.4 0.0
19/10:30pm 18.1 17.1 15.5 85 1.5 N 15 20 8 11 1015.4 1015.3 0.0
19/10:00pm 18.4 17.4 15.6 84 1.7 N 15 20 8 11 1015.7 1015.6 0.0
19/09:30pm 18.7 17.0 15.8 83 1.7 N 19 26 10 14 1015.7 1015.6 0.0

Latest Capital City Observations: Canberra | Sydney | Melbourne | Brisbane | Adelaide | Perth | Hobart | Darwin

Other Formats:

Comma delimited format used in spreadsheet applications
http://www.bom.gov.au/fwo/IDN60903/IDN60903.94938.axf

JavaScript Object Notation format (JSON) in row-major order
http://www.bom.gov.au/fwo/IDN60903/IDN60903.94938.json